Time;durP1;ratioP1;P1;durP2;ratioP2;P2;SDS_P1;SDS_P2;PMS_P1;PMS_P2;Temp;Humidity;BMP_temperature;BMP_pressure;BME280_temperature;BME280_humidity;BME280_pressure;Samples;Min_cycle;Max_cycle;Signal;HPM_P1;HPM_P2
2021/05/19 00:00:12;;;;;;;9.73;2.70;;;38.80;16.00;;;;;;5043192;28;20161;-67
2021/05/19 00:02:38;;;;;;;13.10;3.03;;;39.00;15.40;;;;;;5046383;28;20169;-67
2021/05/19 00:05:06;;;;;;;13.10;2.90;;;39.00;16.20;;;;;;5062266;28;20082;-67
2021/05/19 00:07:33;;;;;;;19.27;3.08;;;38.90;15.60;;;;;;5046039;28;20215;-68
2021/05/19 00:09:59;;;;;;;16.67;2.33;;;39.10;16.10;;;;;;5057336;28;20084;-67
2021/05/19 00:12:26;;;;;;;18.65;2.67;;;39.10;16.50;;;;;;5044297;28;20156;-67
2021/05/19 00:14:53;;;;;;;12.25;2.47;;;38.90;16.10;;;;;;5045623;28;20220;-67
2021/05/19 00:17:19;;;;;;;20.42;2.40;;;38.70;16.20;;;;;;5044921;28;20090;-67
2021/05/19 00:19:46;;;;;;;14.07;2.45;;;38.70;16.20;;;;;;5046179;28;20073;-67
2021/05/19 00:22:13;;;;;;;15.00;2.63;;;38.70;16.10;;;;;;5044456;28;20609;-67
2021/05/19 00:24:39;;;;;;;20.95;3.55;;;38.70;16.80;;;;;;5045912;28;20084;-66
2021/05/19 00:27:06;;;;;;;16.48;3.03;;;38.70;17.00;;;;;;5046691;28;20156;-67
2021/05/19 00:29:33;;;;;;;13.45;2.85;;;38.60;17.70;;;;;;5047535;28;20073;-68
2021/05/19 00:31:59;;;;;;;10.18;2.42;;;38.70;17.70;;;;;;5046023;28;20587;-68
2021/05/19 00:34:26;;;;;;;8.48;2.20;;;38.70;16.30;;;;;;5042909;28;20454;-66
2021/05/19 00:36:52;;;;;;;10.88;2.25;;;38.60;16.90;;;;;;5041644;28;20070;-67
2021/05/19 00:39:19;;;;;;;12.48;2.70;;;38.60;17.00;;;;;;5038817;28;20081;-67
2021/05/19 00:41:46;;;;;;;12.65;2.33;;;38.60;15.80;;;;;;5041966;28;20094;-67
2021/05/19 00:44:21;;;;;;;16.50;2.10;;;38.60;16.20;;;;;;5045309;28;20167;-66
2021/05/19 00:46:48;;;;;;;10.93;2.13;;;38.50;16.60;;;;;;5053700;22;20486;-66
2021/05/19 00:49:15;;;;;;;17.42;2.30;;;38.40;15.90;;;;;;5044653;28;20096;-66
2021/05/19 00:51:42;;;;;;;9.10;2.17;;;38.40;16.90;;;;;;5046399;28;20180;-66
2021/05/19 00:54:12;;;;;;;13.55;2.42;;;38.20;16.10;;;;;;5047268;28;20542;-66
2021/05/19 00:56:40;;;;;;;15.55;2.35;;;38.00;16.00;;;;;;5044625;28;20076;-66
2021/05/19 00:59:10;;;;;;;14.25;2.35;;;38.00;16.50;;;;;;5044834;28;20123;-67
2021/05/19 01:01:37;;;;;;;9.60;1.63;;;38.10;15.40;;;;;;5045984;28;20070;-67
2021/05/19 01:04:05;;;;;;;13.00;1.92;;;38.10;15.30;;;;;;5042022;28;20160;-67
2021/05/19 01:06:58;;;;;;;22.05;2.45;;;38.10;16.90;;;;;;5041307;28;20065;-67
2021/05/19 01:09:35;;;;;;;13.60;2.03;;;37.90;16.70;;;;;;5042141;28;20089;-65
2021/05/19 01:12:03;;;;;;;11.57;2.10;;;37.90;18.30;;;;;;5045520;28;20113;-62
2021/05/19 01:14:32;;;;;;;12.77;2.10;;;37.80;16.50;;;;;;5043634;28;20089;-63
2021/05/19 01:16:59;;;;;;;22.75;2.30;;;37.70;16.60;;;;;;5044360;28;20067;-64
2021/05/19 01:19:26;;;;;;;8.30;1.60;;;37.80;16.20;;;;;;5046562;28;20109;-65
2021/05/19 01:21:56;;;;;;;11.93;1.80;;;37.70;16.60;;;;;;5046448;28;20073;-65
2021/05/19 01:24:23;;;;;;;9.20;1.73;;;37.60;16.40;;;;;;5044050;28;20070;-64
2021/05/19 01:26:50;;;;;;;15.18;1.75;;;37.50;16.40;;;;;;5046215;28;20112;-63
2021/05/19 01:29:16;;;;;;;15.75;2.25;;;37.40;16.50;;;;;;5044432;28;20119;-65
2021/05/19 01:31:46;;;;;;;14.20;1.92;;;37.40;16.70;;;;;;5044146;28;20435;-64
2021/05/19 01:34:13;;;;;;;9.82;1.83;;;37.40;16.30;;;;;;5043134;28;20182;-64
2021/05/19 01:36:39;;;;;;;14.82;1.92;;;37.40;16.60;;;;;;5044460;28;20438;-65
2021/05/19 01:39:07;;;;;;;10.80;2.00;;;37.30;16.90;;;;;;5043058;28;20120;-65
2021/05/19 01:41:34;;;;;;;17.17;2.40;;;37.40;16.50;;;;;;5046164;28;20065;-63
2021/05/19 01:44:13;;;;;;;12.95;2.25;;;37.70;16.70;;;;;;5043011;28;20455;-64
2021/05/19 01:46:40;;;;;;;22.70;3.05;;;37.70;16.30;;;;;;5043412;28;20478;-65
2021/05/19 01:49:07;;;;;;;19.00;2.58;;;37.70;16.50;;;;;;5044515;28;20065;-65
2021/05/19 01:51:37;;;;;;;12.15;2.38;;;37.50;16.70;;;;;;5044189;28;20094;-64
2021/05/19 01:54:05;;;;;;;18.17;2.42;;;37.40;16.80;;;;;;5043692;28;20450;-64
2021/05/19 01:56:36;;;;;;;18.58;2.38;;;37.20;16.70;;;;;;5043848;28;20073;-66
2021/05/19 01:59:03;;;;;;;9.18;1.83;;;37.00;17.10;;;;;;5044582;28;20156;-64
2021/05/19 02:01:30;;;;;;;7.32;1.90;;;37.00;17.00;;;;;;5041056;28;20563;-64
2021/05/19 02:04:08;;;;;;;11.48;1.80;;;36.90;18.00;;;;;;5041842;28;20202;-64
2021/05/19 02:06:57;;;;;;;13.52;2.15;;;36.70;18.00;;;;;;5047059;28;20104;-65
2021/05/19 02:09:26;;;;;;;12.48;1.80;;;36.50;18.40;;;;;;5043394;28;20082;-64
2021/05/19 02:11:53;;;;;;;10.02;2.38;;;36.30;19.10;;;;;;5039359;28;20645;-65
2021/05/19 02:14:21;;;;;;;13.40;2.28;;;36.10;19.10;;;;;;5041497;28;20073;-64
2021/05/19 02:16:48;;;;;;;13.93;2.17;;;35.90;19.50;;;;;;5044076;28;20082;-63
2021/05/19 02:19:15;;;;;;;9.48;1.95;;;35.80;19.50;;;;;;5045066;28;20069;-63
2021/05/19 02:21:43;;;;;;;16.70;2.42;;;35.60;20.80;;;;;;5044933;28;20105;-65
2021/05/19 02:24:11;;;;;;;13.27;2.38;;;35.50;20.80;;;;;;5042710;28;20073;-66
2021/05/19 02:26:41;;;;;;;13.32;2.17;;;35.30;20.40;;;;;;5043184;28;20124;-65
2021/05/19 02:29:09;;;;;;;14.15;2.50;;;35.20;19.40;;;;;;5043959;28;20102;-65
2021/05/19 02:31:36;;;;;;;15.18;2.30;;;35.00;21.50;;;;;;5044531;28;20094;-66
2021/05/19 02:34:03;;;;;;;16.80;2.38;;;34.90;21.20;;;;;;5045473;28;20082;-64
2021/05/19 02:36:30;;;;;;;20.00;2.20;;;34.80;20.30;;;;;;5046388;28;20153;-64
2021/05/19 02:38:57;;;;;;;7.85;1.75;;;34.60;20.40;;;;;;5042671;28;20069;-65
2021/05/19 02:41:24;;;;;;;9.82;2.20;;;34.50;20.40;;;;;;5042838;28;20096;-64
2021/05/19 02:43:51;;;;;;;11.40;2.20;;;34.40;20.60;;;;;;5045284;28;20097;-64
2021/05/19 02:46:18;;;;;;;10.32;2.35;;;34.20;20.50;;;;;;5045601;28;20102;-64
2021/05/19 02:48:45;;;;;;;16.15;2.10;;;34.10;21.50;;;;;;5042850;28;20092;-64
2021/05/19 02:51:12;;;;;;;16.60;2.55;;;34.00;21.40;;;;;;5044441;28;20194;-65
2021/05/19 02:53:39;;;;;;;10.25;2.42;;;33.90;21.90;;;;;;5044653;28;20069;-65
2021/05/19 02:56:05;;;;;;;20.33;2.90;;;33.80;22.00;;;;;;5043269;28;20135;-66
2021/05/19 02:58:33;;;;;;;16.45;2.42;;;33.70;22.20;;;;;;5044055;28;20078;-66
2021/05/19 03:00:59;;;;;;;12.82;2.95;;;33.50;22.40;;;;;;5039553;28;20076;-65
2021/05/19 03:03:26;;;;;;;20.42;3.20;;;33.50;23.00;;;;;;5043232;28;20077;-64
2021/05/19 03:05:53;;;;;;;31.20;6.50;;;33.40;21.90;;;;;;5046019;28;20136;-65
2021/05/19 03:08:20;;;;;;;39.67;6.85;;;33.30;24.20;;;;;;5047827;28;20383;-66
2021/05/19 03:10:47;;;;;;;45.22;5.50;;;33.20;26.20;;;;;;5046319;28;20515;-66
2021/05/19 03:13:13;;;;;;;45.90;6.57;;;33.20;26.70;;;;;;5047015;28;20082;-65
2021/05/19 03:15:40;;;;;;;45.80;5.05;;;33.20;27.30;;;;;;5049267;28;20670;-66
2021/05/19 03:18:06;;;;;;;39.28;6.43;;;33.10;27.70;;;;;;5047134;28;20077;-65
2021/05/19 03:20:33;;;;;;;31.80;5.53;;;33.00;28.00;;;;;;5047122;28;20139;-65
2021/05/19 03:23:00;;;;;;;38.35;5.35;;;33.00;28.20;;;;;;5053444;28;20077;-65
2021/05/19 03:25:26;;;;;;;27.98;5.10;;;32.90;28.50;;;;;;5044793;28;20127;-65
2021/05/19 03:27:53;;;;;;;27.05;5.93;;;32.80;28.40;;;;;;5047789;28;20065;-65
2021/05/19 03:30:20;;;;;;;38.65;6.00;;;32.70;28.50;;;;;;5046321;28;20089;-66
2021/05/19 03:32:47;;;;;;;20.58;4.78;;;32.70;28.40;;;;;;5053156;28;20454;-65
2021/05/19 03:35:14;;;;;;;27.02;4.43;;;32.60;28.50;;;;;;5050017;28;20518;-66
2021/05/19 03:37:42;;;;;;;24.88;4.10;;;32.60;28.50;;;;;;5045134;28;20077;-65
2021/05/19 03:40:10;;;;;;;23.60;4.15;;;32.50;28.50;;;;;;5048494;28;20082;-67
2021/05/19 03:42:37;;;;;;;24.52;3.90;;;32.40;28.70;;;;;;5041687;28;20531;-67
2021/05/19 03:45:06;;;;;;;25.95;4.88;;;32.40;28.60;;;;;;5047640;28;20592;-65
2021/05/19 03:47:33;;;;;;;30.17;4.10;;;32.30;28.60;;;;;;5047363;28;20096;-66
2021/05/19 03:49:59;;;;;;;25.80;3.58;;;32.30;28.70;;;;;;5043180;28;20066;-68
2021/05/19 03:52:26;;;;;;;14.48;2.92;;;32.20;28.70;;;;;;5047432;28;20086;-65
2021/05/19 03:54:53;;;;;;;17.10;3.20;;;32.20;28.80;;;;;;5046900;28;20096;-64
2021/05/19 03:57:19;;;;;;;21.80;3.17;;;32.10;28.70;;;;;;5047288;28;20157;-66
2021/05/19 03:59:52;;;;;;;16.80;3.80;;;32.00;28.90;;;;;;5045226;28;20081;-66
2021/05/19 04:02:18;;;;;;;19.17;3.42;;;31.90;29.00;;;;;;5045424;28;20078;-65
2021/05/19 04:04:45;;;;;;;18.13;3.30;;;31.80;29.20;;;;;;5043215;28;20073;-65
2021/05/19 04:07:12;;;;;;;25.92;2.67;;;31.80;29.20;;;;;;5047248;28;20142;-66
2021/05/19 04:09:39;;;;;;;19.98;3.08;;;31.70;29.10;;;;;;5047306;28;20076;-64
2021/05/19 04:12:06;;;;;;;15.05;3.50;;;31.60;29.40;;;;;;5046500;28;20097;-64
2021/05/19 04:14:32;;;;;;;20.40;3.72;;;31.60;29.60;;;;;;5048967;28;20078;-65
2021/05/19 04:16:59;;;;;;;28.83;4.00;;;31.40;29.50;;;;;;5045859;28;20078;-67
2021/05/19 04:19:25;;;;;;;24.13;3.33;;;31.40;29.50;;;;;;5045394;28;20152;-63
2021/05/19 04:21:52;;;;;;;28.55;4.93;;;31.30;29.60;;;;;;5046654;28;20200;-65
2021/05/19 04:24:18;;;;;;;26.48;5.60;;;31.30;29.70;;;;;;5046929;28;20078;-65
2021/05/19 04:26:45;;;;;;;36.20;6.22;;;31.20;29.90;;;;;;5047063;28;20065;-65
2021/05/19 04:29:12;;;;;;;35.08;7.03;;;31.20;30.00;;;;;;5044255;28;20090;-65
2021/05/19 04:31:38;;;;;;;28.58;8.15;;;31.00;30.00;;;;;;5048566;28;20094;-66
2021/05/19 04:34:05;;;;;;;33.58;10.15;;;31.00;30.10;;;;;;5049193;28;20527;-65
2021/05/19 04:36:31;;;;;;;34.83;10.27;;;30.90;30.10;;;;;;5046144;28;20070;-63
2021/05/19 04:38:58;;;;;;;35.97;8.70;;;30.90;30.40;;;;;;5044566;28;20077;-63
2021/05/19 04:41:25;;;;;;;27.10;8.32;;;30.80;30.60;;;;;;5045976;28;20074;-65
2021/05/19 04:43:52;;;;;;;36.40;7.88;;;30.70;30.70;;;;;;5045203;28;20077;-64
2021/05/19 04:46:18;;;;;;;36.05;7.10;;;30.60;30.90;;;;;;5049789;28;20109;-65
2021/05/19 04:48:46;;;;;;;24.10;7.53;;;30.60;31.00;;;;;;5044362;28;20074;-65
2021/05/19 04:51:12;;;;;;;38.95;7.22;;;30.50;31.20;;;;;;5045412;28;20180;-65
2021/05/19 04:53:39;;;;;;;24.30;6.95;;;30.40;31.40;;;;;;5043022;28;20092;-64
2021/05/19 04:56:05;;;;;;;31.88;8.07;;;30.40;31.40;;;;;;5041458;28;20085;-66
2021/05/19 04:58:31;;;;;;;25.52;7.13;;;30.20;31.50;;;;;;5045535;28;20074;-64
2021/05/19 05:01:02;;;;;;;26.65;6.82;;;30.10;31.60;;;;;;5045215;28;20074;-64
2021/05/19 05:03:29;;;;;;;34.95;9.63;;;30.10;31.80;;;;;;5043589;28;20071;-64
2021/05/19 05:05:56;;;;;;;38.22;10.20;;;30.00;31.80;;;;;;5040868;28;20215;-63
2021/05/19 05:08:22;;;;;;;36.90;10.70;;;30.00;31.80;;;;;;5042587;28;20073;-65
2021/05/19 05:10:49;;;;;;;38.35;11.95;;;29.90;32.10;;;;;;5047885;28;20179;-65
2021/05/19 05:13:16;;;;;;;34.92;11.32;;;29.80;32.30;;;;;;5045190;28;20212;-65
2021/05/19 05:15:42;;;;;;;28.35;9.18;;;29.80;32.50;;;;;;5043367;28;20598;-65
2021/05/19 05:18:08;;;;;;;31.25;7.80;;;29.70;32.50;;;;;;5043627;28;20550;-65
2021/05/19 05:20:35;;;;;;;25.65;6.70;;;29.60;32.60;;;;;;5044783;28;20097;-65
2021/05/19 05:23:02;;;;;;;24.30;6.72;;;29.60;32.80;;;;;;5043418;28;20070;-66
2021/05/19 05:25:30;;;;;;;22.35;6.25;;;29.50;33.10;;;;;;5047648;28;20452;-65
2021/05/19 05:27:56;;;;;;;23.15;5.50;;;29.50;33.30;;;;;;5043524;28;20078;-65
2021/05/19 05:30:23;;;;;;;25.52;5.15;;;29.40;33.70;;;;;;5041468;28;20447;-66
2021/05/19 05:32:50;;;;;;;25.17;5.28;;;29.30;33.80;;;;;;5044463;28;20086;-65
2021/05/19 05:35:20;;;;;;;24.23;5.72;;;29.30;34.00;;;;;;5044222;28;20431;-64
2021/05/19 05:37:46;;;;;;;32.90;9.55;;;29.30;34.30;;;;;;5043101;28;20082;-63
2021/05/19 05:40:13;;;;;;;28.60;8.18;;;29.20;34.40;;;;;;5036250;28;20073;-63
2021/05/19 05:42:42;;;;;;;35.13;9.02;;;29.20;34.40;;;;;;5044134;28;20114;-63
2021/05/19 05:45:10;;;;;;;30.20;8.75;;;29.20;34.50;;;;;;5044085;28;20201;-67
2021/05/19 05:47:36;;;;;;;32.25;8.38;;;29.20;34.30;;;;;;5038837;28;20097;-66
2021/05/19 05:50:04;;;;;;;32.50;7.28;;;29.20;34.30;;;;;;5037440;28;20074;-65
2021/05/19 05:52:31;;;;;;;27.55;6.40;;;29.20;34.10;;;;;;5039427;28;20120;-65
2021/05/19 05:55:04;;;;;;;21.52;6.22;;;29.10;33.70;;;;;;5036800;28;20649;-64
2021/05/19 05:57:31;;;;;;;24.45;5.13;;;29.10;33.80;;;;;;5038692;28;20082;-65
2021/05/19 05:59:58;;;;;;;29.52;5.07;;;29.00;33.40;;;;;;5039098;28;21181;-64
2021/05/19 06:02:24;;;;;;;24.75;5.47;;;29.10;34.00;;;;;;5034706;28;20078;-64
2021/05/19 06:04:51;;;;;;;27.13;6.18;;;29.10;33.90;;;;;;5038751;28;20074;-63
2021/05/19 06:07:17;;;;;;;42.30;8.55;;;29.00;33.60;;;;;;5042069;28;20575;-63
2021/05/19 06:09:50;;;;;;;26.65;7.78;;;28.90;33.30;;;;;;5037004;28;20071;-64
2021/05/19 06:12:17;;;;;;;26.58;8.05;;;28.90;33.10;;;;;;5039282;28;20098;-65
2021/05/19 06:14:43;;;;;;;33.67;8.23;;;28.90;32.80;;;;;;5036875;28;20070;-61
2021/05/19 06:17:12;;;;;;;34.08;7.35;;;28.90;32.40;;;;;;5036755;28;20106;-64
2021/05/19 06:19:39;;;;;;;35.95;7.57;;;28.80;32.20;;;;;;5038468;28;20081;-64
2021/05/19 06:22:05;;;;;;;27.65;7.30;;;28.80;32.20;;;;;;5037021;28;20149;-63
2021/05/19 06:24:32;;;;;;;40.78;7.80;;;28.70;31.90;;;;;;5038578;28;20091;-62
2021/05/19 06:26:59;;;;;;;35.22;7.93;;;28.70;32.60;;;;;;5040168;28;20097;-63
2021/05/19 06:29:25;;;;;;;30.55;6.75;;;28.70;32.10;;;;;;5041126;28;20073;-63
2021/05/19 06:31:52;;;;;;;54.25;8.38;;;28.60;32.20;;;;;;5056875;28;20093;-65
2021/05/19 06:34:18;;;;;;;29.52;7.35;;;28.60;31.80;;;;;;5040168;28;20085;-64
2021/05/19 06:36:46;;;;;;;33.55;7.53;;;28.60;31.90;;;;;;5039635;28;20102;-64
2021/05/19 06:39:22;;;;;;;34.75;8.13;;;28.60;31.80;;;;;;5042079;28;20558;-64
2021/05/19 06:41:49;;;;;;;46.63;9.35;;;28.60;32.00;;;;;;5044086;28;20069;-64
2021/05/19 06:44:17;;;;;;;33.05;7.25;;;28.50;32.00;;;;;;5040065;28;20101;-65
2021/05/19 06:46:44;;;;;;;47.58;8.90;;;28.50;32.10;;;;;;5045269;28;20148;-63
2021/05/19 06:49:12;;;;;;;36.00;7.72;;;28.50;32.20;;;;;;5045605;28;20119;-63
2021/05/19 06:51:42;;;;;;;34.05;7.95;;;28.40;32.30;;;;;;5047093;28;20475;-64
2021/05/19 06:54:10;;;;;;;33.10;8.30;;;28.40;32.20;;;;;;5040370;28;20070;-64
2021/05/19 06:56:43;;;;;;;35.75;9.40;;;28.40;32.30;;;;;;5044733;28;20472;-64
2021/05/19 06:59:13;;;;;;;33.28;9.50;;;28.30;32.40;;;;;;5037126;28;20104;-65
2021/05/19 07:01:39;;;;;;;36.33;10.38;;;28.30;32.50;;;;;;5043532;28;20097;-64
2021/05/19 07:04:06;;;;;;;30.13;9.85;;;28.30;32.60;;;;;;5042912;28;20082;-64
2021/05/19 07:06:33;;;;;;;34.78;8.75;;;28.30;33.40;;;;;;5044372;28;20120;-64
2021/05/19 07:08:59;;;;;;;38.67;9.75;;;28.20;32.60;;;;;;5041038;28;20075;-64
2021/05/19 07:11:26;;;;;;;27.30;7.55;;;28.30;32.60;;;;;;5041251;28;20611;-64
2021/05/19 07:13:55;;;;;;;22.65;6.53;;;28.20;32.70;;;;;;5039983;28;20079;-64
2021/05/19 07:16:25;;;;;;;27.45;6.90;;;28.20;32.70;;;;;;5040194;28;20485;-64
2021/05/19 07:18:55;;;;;;;22.67;5.40;;;28.20;32.70;;;;;;5043955;28;20085;-64
2021/05/19 07:21:26;;;;;;;16.67;4.88;;;28.20;32.80;;;;;;5039820;28;20088;-63
2021/05/19 07:23:57;;;;;;;14.15;3.65;;;28.10;33.00;;;;;;5043596;28;20499;-64
2021/05/19 07:26:24;;;;;;;17.50;3.75;;;28.10;33.30;;;;;;5057600;28;20087;-63
2021/05/19 07:28:54;;;;;;;16.05;4.20;;;28.10;33.60;;;;;;5047027;28;20116;-64
2021/05/19 07:31:20;;;;;;;18.23;3.45;;;28.10;33.80;;;;;;5043230;28;20475;-64
2021/05/19 07:33:48;;;;;;;14.52;3.80;;;28.10;34.00;;;;;;5043260;28;20096;-64
2021/05/19 07:36:14;;;;;;;17.10;5.00;;;28.00;34.20;;;;;;5041251;28;20084;-65
2021/05/19 07:38:41;;;;;;;22.92;5.18;;;28.00;34.80;;;;;;5040786;28;20443;-64
2021/05/19 07:41:07;;;;;;;12.63;4.60;;;27.90;36.00;;;;;;5041105;28;20157;-64
2021/05/19 07:43:34;;;;;;;14.43;4.38;;;27.90;36.10;;;;;;5044931;28;20073;-64
2021/05/19 07:46:00;;;;;;;12.27;4.50;;;27.90;36.50;;;;;;5038921;28;20594;-62
2021/05/19 07:48:27;;;;;;;13.77;4.13;;;27.80;36.80;;;;;;5041899;28;20478;-65
2021/05/19 07:50:53;;;;;;;19.48;4.47;;;27.80;37.30;;;;;;5038948;28;20508;-65
2021/05/19 07:53:20;;;;;;;19.70;4.75;;;27.70;37.90;;;;;;5043720;28;20105;-63
2021/05/19 07:55:51;;;;;;;17.10;5.90;;;27.70;38.60;;;;;;5044254;28;20070;-63
2021/05/19 07:58:24;;;;;;;16.67;6.72;;;27.60;39.00;;;;;;5041286;28;20090;-65
2021/05/19 08:03:33;;;;;;;21.58;9.52;;;27.60;40.10;;;;;;5041269;28;20439;-63
2021/05/19 08:06:00;;;;;;;23.85;13.20;;;27.50;40.40;;;;;;5040626;28;20101;-64
2021/05/19 08:08:27;;;;;;;31.90;14.40;;;27.40;41.20;;;;;;5045721;28;20108;-64
2021/05/19 08:10:55;;;;;;;27.75;12.57;;;27.30;42.10;;;;;;5044367;28;20089;-65
2021/05/19 08:13:22;;;;;;;21.65;8.98;;;27.30;42.70;;;;;;5044906;28;20081;-64
2021/05/19 08:15:48;;;;;;;25.60;8.73;;;27.20;43.40;;;;;;5038138;28;20606;-64
2021/05/19 08:18:17;;;;;;;16.20;6.45;;;27.10;43.70;;;;;;5044925;28;20092;-63
2021/05/19 08:20:43;;;;;;;12.85;5.10;;;27.10;44.50;;;;;;5038436;28;20124;-65
2021/05/19 08:23:10;;;;;;;18.45;5.07;;;27.10;44.80;;;;;;5044344;28;20117;-64
2021/05/19 08:25:36;;;;;;;22.40;4.40;;;27.10;45.20;;;;;;5039363;28;20089;-65
2021/05/19 08:28:03;;;;;;;19.10;4.43;;;27.00;45.50;;;;;;5040929;28;20069;-64
2021/05/19 08:30:30;;;;;;;19.92;5.00;;;27.00;46.30;;;;;;5040570;28;20090;-64
2021/05/19 08:32:56;;;;;;;26.73;5.10;;;26.90;47.00;;;;;;5036305;28;20571;-65
2021/05/19 08:35:23;;;;;;;19.67;4.75;;;26.90;47.10;;;;;;5042722;28;20070;-64
2021/05/19 08:37:49;;;;;;;25.58;5.05;;;26.80;47.20;;;;;;5042986;28;20080;-65
2021/05/19 08:40:16;;;;;;;22.92;4.35;;;26.80;47.80;;;;;;5043935;28;20099;-63
2021/05/19 08:42:43;;;;;;;17.23;4.80;;;26.70;49.20;;;;;;5040867;28;20434;-64
2021/05/19 08:45:11;;;;;;;19.70;4.68;;;26.60;50.30;;;;;;5044109;28;20116;-64
2021/05/19 08:47:38;;;;;;;17.77;4.65;;;26.50;50.90;;;;;;5040985;28;20081;-64
2021/05/19 08:50:07;;;;;;;17.65;4.35;;;26.50;51.60;;;;;;5043167;28;20559;-64
2021/05/19 08:52:38;;;;;;;21.92;5.05;;;26.50;51.90;;;;;;5038374;28;20084;-64
2021/05/19 08:55:18;;;;;;;16.67;4.47;;;26.50;52.50;;;;;;5041688;28;20073;-63
2021/05/19 08:57:46;;;;;;;19.63;5.20;;;26.40;53.10;;;;;;5039535;28;20070;-64
2021/05/19 09:00:13;;;;;;;19.15;5.20;;;26.40;53.60;;;;;;5044907;28;20070;-65
2021/05/19 09:02:40;;;;;;;15.95;5.45;;;26.40;54.00;;;;;;5040124;28;20077;-65
2021/05/19 09:05:08;;;;;;;20.95;5.97;;;26.30;54.50;;;;;;5041750;28;20069;-62
2021/05/19 09:07:36;;;;;;;19.35;6.07;;;26.20;54.90;;;;;;5042444;28;20070;-64
2021/05/19 09:10:19;;;;;;;16.40;6.15;;;26.20;55.20;;;;;;5042546;28;20520;-63
2021/05/19 09:12:46;;;;;;;17.85;5.30;;;26.20;55.50;;;;;;5039969;28;20119;-63
2021/05/19 09:15:13;;;;;;;17.30;5.28;;;26.20;55.70;;;;;;5041080;28;20072;-64
2021/05/19 09:17:41;;;;;;;18.92;5.22;;;26.10;55.90;;;;;;5039850;28;20081;-64
2021/05/19 09:20:13;;;;;;;13.98;5.35;;;26.00;56.30;;;;;;5042848;28;20551;-64
2021/05/19 09:22:42;;;;;;;18.02;5.47;;;26.00;56.00;;;;;;5040370;28;20081;-62
2021/05/19 09:25:26;;;;;;;17.80;5.07;;;26.00;56.00;;;;;;5042637;28;20076;-64
2021/05/19 09:27:58;;;;;;;19.42;5.80;;;26.00;56.00;;;;;;5038098;28;20069;-64
2021/05/19 09:30:54;;;;;;;16.77;4.00;;;25.90;55.70;;;;;;5042939;28;20115;-66
2021/05/19 09:33:28;;;;;;;21.75;5.18;;;25.80;56.20;;;;;;5029664;28;20424;-64
2021/05/19 09:36:21;;;;;;;18.80;4.28;;;25.80;56.70;;;;;;5043827;28;20088;-63
2021/05/19 09:38:53;;;;;;;21.27;4.63;;;25.80;56.80;;;;;;5057824;28;20101;-63
2021/05/19 09:41:25;;;;;;;18.80;3.90;;;25.70;57.60;;;;;;5039131;28;20111;-63
2021/05/19 09:43:55;;;;;;;17.27;3.78;;;25.60;58.00;;;;;;5041005;28;20101;-65
2021/05/19 09:49:18;;;;;;;23.98;4.47;;;25.50;58.90;;;;;;5040682;28;20141;-63
2021/05/19 09:51:57;;;;;;;17.17;4.45;;;25.30;58.80;;;;;;5042609;28;20172;-63
2021/05/19 09:54:45;;;;;;;20.75;4.90;;;25.30;58.80;;;;;;5044421;28;20084;-63
2021/05/19 09:57:14;;;;;;;22.33;4.50;;;25.30;59.90;;;;;;5037872;28;20104;-64
2021/05/19 09:59:43;;;;;;;11.07;3.60;;;25.20;60.40;;;;;;5041588;28;20097;-64
2021/05/19 10:02:11;;;;;;;13.77;3.78;;;25.10;61.20;;;;;;5039257;28;20069;-64
2021/05/19 10:04:40;;;;;;;21.05;4.10;;;25.00;61.60;;;;;;5043443;28;20118;-64
2021/05/19 10:07:12;;;;;;;12.90;3.45;;;24.90;62.60;;;;;;5037607;28;20093;-65
2021/05/19 10:09:39;;;;;;;21.75;3.83;;;24.70;64.90;;;;;;5041102;28;20070;-64
2021/05/19 10:12:06;;;;;;;13.77;3.67;;;24.70;65.90;;;;;;5040112;28;20177;-64
2021/05/19 10:14:32;;;;;;;13.70;3.67;;;24.50;67.60;;;;;;5041044;28;20088;-64
2021/05/19 10:17:07;;;;;;;13.35;3.42;;;24.30;69.30;;;;;;5037778;28;20078;-64
2021/05/19 10:19:53;;;;;;;14.13;3.20;;;24.30;69.90;;;;;;5041843;28;20156;-64
2021/05/19 10:22:21;;;;;;;16.73;4.43;;;24.30;70.40;;;;;;5036553;28;20082;-65
2021/05/19 10:25:19;;;;;;;13.07;3.72;;;24.20;70.10;;;;;;5043159;28;20080;-63
2021/05/19 10:27:53;;;;;;;13.63;3.80;;;24.20;70.80;;;;;;5038470;28;20503;-64
2021/05/19 10:30:37;;;;;;;18.10;3.95;;;24.00;71.60;;;;;;5041196;28;20661;-63
2021/05/19 10:33:06;;;;;;;10.80;2.95;;;23.90;72.00;;;;;;5039366;28;20073;-64
2021/05/19 10:35:38;;;;;;;8.98;3.15;;;23.90;72.80;;;;;;5042472;28;20070;-64
2021/05/19 10:38:28;;;;;;;12.23;4.05;;;23.80;72.60;;;;;;5039797;28;20074;-64
2021/05/19 10:40:58;;;;;;;13.40;2.80;;;23.80;73.20;;;;;;5044525;28;20168;-65
2021/05/19 10:43:47;;;;;;;14.60;3.38;;;23.70;73.50;;;;;;5040727;28;20591;-64
2021/05/19 10:46:17;;;;;;;10.73;2.67;;;23.70;73.60;;;;;;5042804;28;20518;-62
2021/05/19 10:48:54;;;;;;;14.43;3.30;;;23.70;73.90;;;;;;5036755;28;20482;-63
2021/05/19 10:57:20;;;;;;;11.30;3.05;;;23.60;73.90;;;;;;5041993;28;20209;-63
2021/05/19 11:00:31;;;;;;;16.25;4.00;;;23.40;74.10;;;;;;5039236;28;20443;-62
2021/05/19 11:03:04;;;;;;;17.90;3.55;;;23.50;74.50;;;;;;5038175;28;20137;-63
2021/05/19 11:05:36;;;;;;;14.35;3.42;;;23.60;73.70;;;;;;5039588;28;20108;-63
2021/05/19 11:08:15;;;;;;;15.68;3.80;;;23.50;73.60;;;;;;5040834;28;20090;-63
2021/05/19 11:10:46;;;;;;;17.02;3.30;;;23.40;73.90;;;;;;5037822;28;20176;-63
2021/05/19 11:13:13;;;;;;;16.33;3.63;;;23.40;74.20;;;;;;5040451;28;20131;-64
2021/05/19 11:18:19;;;;;;;14.13;3.83;;;23.20;74.90;;;;;;5041007;28;20088;-63
2021/05/19 11:20:47;;;;;;;18.52;4.15;;;23.30;75.00;;;;;;5039854;28;20535;-64
2021/05/19 11:23:14;;;;;;;17.15;4.50;;;23.20;75.00;;;;;;5042831;28;20527;-64
2021/05/19 11:25:41;;;;;;;16.75;3.72;;;23.20;74.70;;;;;;5042252;28;20078;-63
2021/05/19 11:28:08;;;;;;;15.02;3.83;;;23.20;74.50;;;;;;5042520;28;20597;-61
2021/05/19 11:30:35;;;;;;;18.90;3.80;;;23.20;74.50;;;;;;5041827;28;20124;-63
2021/05/19 11:33:11;;;;;;;22.10;3.97;;;23.30;73.90;;;;;;5044134;28;20074;-64
2021/05/19 11:35:38;;;;;;;13.82;3.63;;;23.20;73.50;;;;;;5042194;28;20081;-63
2021/05/19 11:38:07;;;;;;;11.55;3.28;;;23.00;74.20;;;;;;5044784;28;20078;-65
2021/05/19 11:40:40;;;;;;;21.42;4.53;;;23.00;74.20;;;;;;5056600;28;20074;-61
2021/05/19 11:43:08;;;;;;;14.00;4.20;;;23.00;74.00;;;;;;5043939;28;20273;-65
2021/05/19 11:45:35;;;;;;;14.80;4.38;;;23.00;73.70;;;;;;5042044;28;20171;-63
2021/05/19 11:48:02;;;;;;;18.05;4.38;;;23.10;73.10;;;;;;5043494;28;20459;-64
2021/05/19 11:50:31;;;;;;;10.32;3.50;;;23.10;73.10;;;;;;5042737;28;20093;-64
2021/05/19 11:53:09;;;;;;;11.30;3.33;;;23.00;72.70;;;;;;5041643;28;20082;-65
2021/05/19 11:55:37;;;;;;;13.20;3.15;;;22.90;72.10;;;;;;5042230;28;20148;-63
2021/05/19 11:58:11;;;;;;;12.00;3.08;;;22.90;72.10;;;;;;5042397;28;20139;-64
2021/05/19 12:01:07;;;;;;;13.63;2.90;;;22.90;71.60;;;;;;5042806;28;20070;-64
2021/05/19 12:03:35;;;;;;;12.15;3.45;;;22.90;70.90;;;;;;5038173;28;20535;-63
2021/05/19 12:06:04;;;;;;;10.63;2.92;;;22.90;70.10;;;;;;5047073;28;20153;-63
2021/05/19 12:08:34;;;;;;;8.63;2.53;;;22.90;69.70;;;;;;5042515;28;20100;-63
2021/05/19 12:11:08;;;;;;;11.55;2.60;;;22.80;69.80;;;;;;5043294;28;20086;-62
2021/05/19 12:13:37;;;;;;;12.25;2.70;;;22.70;70.30;;;;;;5040177;28;20539;-64
2021/05/19 12:16:10;;;;;;;10.73;2.67;;;22.70;70.40;;;;;;5044953;28;20157;-62
2021/05/19 12:18:37;;;;;;;12.45;2.85;;;22.70;70.40;;;;;;5041283;28;20085;-63
2021/05/19 12:21:11;;;;;;;17.35;3.85;;;22.80;70.80;;;;;;5042446;28;20450;-65
2021/05/19 12:23:39;;;;;;;12.10;3.58;;;22.80;70.10;;;;;;5040916;28;20092;-64
2021/05/19 12:26:11;;;;;;;12.32;2.85;;;22.70;70.50;;;;;;5038815;28;20404;-62
2021/05/19 12:28:38;;;;;;;9.52;3.67;;;22.70;70.70;;;;;;5039876;28;20069;-64
2021/05/19 12:31:05;;;;;;;16.73;3.55;;;22.60;70.80;;;;;;5042207;28;20101;-62
2021/05/19 12:33:42;;;;;;;16.20;3.60;;;22.60;70.80;;;;;;5042238;28;20085;-61
2021/05/19 12:36:22;;;;;;;12.48;3.60;;;22.50;71.20;;;;;;5039040;28;20088;-61
2021/05/19 12:38:49;;;;;;;17.85;4.35;;;22.40;71.30;;;;;;5041170;28;20066;-62
2021/05/19 12:41:41;;;;;;;24.20;6.78;;;22.50;71.50;;;;;;5044132;28;20065;-63
2021/05/19 12:44:09;;;;;;;21.67;7.30;;;22.50;71.00;;;;;;5044218;28;20077;-63
2021/05/19 12:46:35;;;;;;;30.92;9.85;;;22.50;70.90;;;;;;5041978;28;20533;-62
2021/05/19 12:49:09;;;;;;;31.13;8.55;;;22.50;70.50;;;;;;5042129;28;20081;-63
2021/05/19 12:51:55;;;;;;;24.52;8.05;;;22.40;70.30;;;;;;5042388;28;20089;-63
2021/05/19 12:54:28;;;;;;;27.55;7.65;;;22.50;70.90;;;;;;5043029;28;20084;-64
2021/05/19 12:57:05;;;;;;;17.33;6.28;;;22.50;70.30;;;;;;5042068;28;20064;-63
2021/05/19 12:59:50;;;;;;;17.08;5.55;;;22.60;70.70;;;;;;5041955;28;20082;-63
2021/05/19 13:02:17;;;;;;;21.80;5.70;;;22.60;69.90;;;;;;5045394;28;20151;-63